Beavertown, PA

12:04 AM EDT on September 20, 2014 (GMT -0400)
Beavertown and Surrounding Area | Change Station
CLOSE
Current Station
Personal Weather Station
Location: Beavertown, PA
Elevation: 651 ft
Nearby Weather Stations

Elev 651 ft 40.75 °N, 77.17 °W | Updated 162 days ago

Fog
Fog
57 °F
Feels Like 57 °F
N
5
Wind Variable Wind from SSE
Gusts 7 mph

Today
High -- | Low -- °F
--% Chance of Precip.
Yesterday
High -- | Low -- °F
Precip. -- in
6:54 AM 7:09 PM
Waning Crescent, 15% visible
Pressure 30.27 in
Visibility 9.0 miles
Clouds Overcast 2400 ft
Dew Point 54 °F
Humidity 84%
Rainfall 0.00 in
Snow Depth Not available.
UV 0 out of 12
Pollen 3.50 out of 12
Air Quality Not available.
Flu Activity Not available.
METAR KSEG 200353Z AUTO VRB06G18KT 9SM OVC024 17/12 A3027 RMK AO2 SLP250 T01670117

More Conditions Fewer Conditions

Pressure 30.27 in
Visibility 9.0 miles
Clouds Overcast 2400 ft
Dew Point 54 °F
Humidity 84%
Rainfall 0.00 in
Snow Depth Not available.
UV 0 out of 12
Pollen 3.50 out of 12
Air Quality Not available.
Flu Activity Not available.
METAR KSEG 200353Z AUTO VRB06G18KT 9SM OVC024 17/12 A3027 RMK AO2 SLP250 T01670117

More Conditions Fewer Conditions

10-Day Weather Forecast

Almanac

Astronomy

Sep. 20, 2014 Rise Set
Actual Time 6:54 AM EDT 7:09 PM EDT
Civil Twilight 6:26 AM EDT 7:36 PM EDT
Nautical Twilight 5:54 AM EDT 8:08 PM EDT
Astronomical Twilight 5:21 AM EDT 8:41 PM EDT
Moon 3:30 AM EDT 5:12 PM EDT
Length of Visible Light 13h 09m
Length of Day
12h 15m
Tomorrow will be 2m 40s shorter.
Waning Crescent, 15% of the Moon is Illuminated
Today
Waning Crescent
Sep 24
New
Oct 1
First Quarter
Oct 8
Full
Oct 15
Last Quarter

Yesterday's Extremes

State Highs State Lows

Community

WunderPhotos

Upload Photos

1,754,777 photos uploaded!

WunderBlogs® & News

Nearby

Snow Depth

Station Depth Elevation
No new snow has been reported.

Earthquake Activity

City Distance Mag. Time & Date
No recent earthquake activity has been reported nearby.
Minimum magnitude displayed is 2.5.

Coastal Water Temperatures

Place Temperature
No Stations Reporting

Nearby Weather Stations